Time;durP1;ratioP1;P1;durP2;ratioP2;P2;SDS_P1;SDS_P2;PMS_P1;PMS_P2;Temp;Humidity;BMP_temperature;BMP_pressure;BME280_temperature;BME280_humidity;BME280_pressure;Samples;Min_cycle;Max_cycle;Signal;HPM_P1;HPM_P2
2020/12/21 00:00:21;;;;;;;31.73;18.70;;;;;;;6.61;66.29;100779.72;5076400;28;20049;-81
2020/12/21 00:02:47;;;;;;;29.02;18.00;;;;;;;7.33;66.49;100893.78;5076661;28;20028;-82
2020/12/21 00:05:12;;;;;;;30.83;19.38;;;;;;;6.71;66.54;100806.94;5077471;28;20024;-82
2020/12/21 00:07:38;;;;;;;30.98;18.33;;;;;;;7.12;66.39;100864.00;5077758;28;20090;-82
2020/12/21 00:10:04;;;;;;;29.35;18.88;;;;;;;7.00;66.44;100850.06;5077582;28;20060;-82
2020/12/21 00:12:32;;;;;;;28.20;16.98;;;;;;;6.96;65.79;100834.69;5076208;28;20017;-80
2020/12/21 00:14:57;;;;;;;29.35;16.80;;;;;;;6.70;65.80;100797.41;5076326;28;20354;-83
2020/12/21 00:17:22;;;;;;;29.05;17.50;;;;;;;7.37;65.66;100904.88;5076133;28;20027;-82
2020/12/21 00:19:48;;;;;;;32.00;18.23;;;;;;;6.88;65.27;100832.66;5076266;28;20431;-80
2020/12/21 00:22:17;;;;;;;28.02;17.45;;;;;;;7.41;65.84;100937.84;5076106;28;20066;-81
2020/12/21 00:24:43;;;;;;;28.42;16.73;;;;;;;6.68;65.76;100800.09;5077578;28;20300;-81
2020/12/21 00:27:08;;;;;;;30.73;16.63;;;;;;;7.54;65.40;100930.66;5077259;28;20016;-82
2020/12/21 00:29:34;;;;;;;32.13;18.08;;;;;;;7.43;65.35;100924.56;5075963;28;20025;-82
2020/12/21 00:31:59;;;;;;;29.20;17.80;;;;;;;7.33;65.65;100909.56;5076086;28;20072;-82
2020/12/21 00:34:24;;;;;;;33.47;17.95;;;;;;;7.52;65.51;100937.84;5075916;28;20052;-82
2020/12/21 00:36:51;;;;;;;29.55;17.98;;;;;;;6.85;65.82;100837.34;5075695;28;20028;-83
2020/12/21 00:39:17;;;;;;;27.98;17.23;;;;;;;6.96;66.01;100843.41;5076562;28;20337;-81
2020/12/21 00:41:43;;;;;;;28.70;17.40;;;;;;;7.47;65.35;100961.03;5076412;28;20432;-83
2020/12/21 00:44:09;;;;;;;30.40;17.45;;;;;;;7.44;65.73;100940.25;5076967;28;20028;-81
2020/12/21 00:46:35;;;;;;;33.78;19.00;;;;;;;7.16;65.43;100894.31;5076707;28;20016;-81
2020/12/21 00:49:01;;;;;;;29.05;18.38;;;;;;;6.94;65.29;100854.97;5075635;28;20028;-83
2020/12/21 00:51:27;;;;;;;26.45;15.95;;;;;;;7.43;65.45;100945.59;5076634;28;20423;-83
2020/12/21 00:53:53;;;;;;;30.38;17.20;;;;;;;6.91;65.43;100871.81;5076674;28;20035;-82
2020/12/21 00:56:20;;;;;;;32.70;19.33;;;;;;;6.85;64.98;100829.47;5076479;28;20031;-82
2020/12/21 00:58:46;;;;;;;24.70;15.50;;;;;;;7.31;65.24;100916.72;5082860;28;20055;-82
2020/12/21 01:01:21;;;;;;;25.98;15.45;;;;;;;6.72;64.90;100834.00;5096975;28;20119;-82
2020/12/21 01:03:46;;;;;;;27.75;16.95;;;;;;;7.39;64.72;100929.25;5078805;28;20438;-83
2020/12/21 01:06:13;;;;;;;23.67;14.63;;;;;;;6.64;64.79;100817.06;5096604;28;20099;-82
2020/12/21 01:08:39;;;;;;;26.23;15.50;;;;;;;6.86;64.58;100849.50;5096766;28;20016;-80
2020/12/21 01:11:14;;;;;;;27.65;15.40;;;;;;;7.32;64.48;100926.28;5096693;28;20031;-82
2020/12/21 01:13:41;;;;;;;25.92;15.40;;;;;;;7.05;64.55;100890.88;5096700;28;20438;-81
2020/12/21 01:16:06;;;;;;;28.70;16.00;;;;;;;7.13;64.06;100909.47;5096578;28;20020;-83
2020/12/21 01:18:33;;;;;;;24.88;14.45;;;;;;;7.18;64.48;100915.19;5096344;28;20929;-82
2020/12/21 01:20:58;;;;;;;29.38;15.60;;;;;;;7.25;64.43;100922.47;5096523;28;20024;-83
2020/12/21 01:23:24;;;;;;;27.77;16.83;;;;;;;6.77;64.31;100840.56;5078346;28;20449;-83
2020/12/21 01:25:50;;;;;;;28.15;16.23;;;;;;;7.17;64.58;100900.41;5096329;28;20020;-84
2020/12/21 01:28:15;;;;;;;25.67;16.17;;;;;;;7.16;64.60;100890.84;5096133;28;20162;-80
2020/12/21 01:30:40;;;;;;;29.88;16.83;;;;;;;6.86;64.66;100852.13;5096330;28;20020;-80
2020/12/21 01:33:06;;;;;;;29.77;15.63;;;;;;;7.05;63.98;100873.34;5096259;28;20050;-80
2020/12/21 01:35:31;;;;;;;26.70;15.55;;;;;;;7.07;64.18;100899.47;5096051;28;20035;-79
2020/12/21 01:37:56;;;;;;;29.63;15.43;;;;;;;6.71;64.40;100822.69;5095875;28;20059;-82
2020/12/21 01:40:22;;;;;;;25.92;15.75;;;;;;;7.16;64.31;100885.59;5095904;28;20024;-82
2020/12/21 01:42:47;;;;;;;28.52;15.90;;;;;;;7.37;63.98;100922.44;5096061;28;20457;-82
2020/12/21 01:45:13;;;;;;;23.23;14.75;;;;;;;7.11;63.88;100885.13;5095898;28;20440;-82
2020/12/21 01:47:38;;;;;;;27.25;15.50;;;;;;;7.36;64.24;100923.41;5095999;28;20045;-82
2020/12/21 01:50:05;;;;;;;23.65;14.27;;;;;;;7.35;64.00;100912.06;5096258;28;20375;-81
2020/12/21 01:52:31;;;;;;;22.02;13.68;;;;;;;7.35;63.80;100917.31;5095666;28;20020;-83
2020/12/21 01:54:56;;;;;;;23.65;14.77;;;;;;;5.98;63.72;100694.69;5095777;28;20088;-81
2020/12/21 01:57:22;;;;;;;24.77;13.38;;;;;;;6.55;64.20;100795.97;5095620;28;20078;-82
2020/12/21 01:59:47;;;;;;;24.58;13.65;;;;;;;6.56;64.45;100798.47;5095683;28;20048;-81
2020/12/21 02:02:13;;;;;;;23.20;12.82;;;;;;;6.82;64.10;100829.69;5077651;28;20057;-82
2020/12/21 02:04:38;;;;;;;23.27;13.70;;;;;;;7.26;64.47;100910.16;5095387;28;20111;-81
2020/12/21 02:07:05;;;;;;;22.00;12.95;;;;;;;6.49;64.05;100807.78;5077510;28;20027;-81
2020/12/21 02:09:31;;;;;;;23.00;14.13;;;;;;;6.72;64.30;100858.47;5095384;28;20103;-81
2020/12/21 02:11:56;;;;;;;24.15;13.13;;;;;;;6.76;64.30;100849.41;5095427;28;20346;-81
2020/12/21 02:14:22;;;;;;;23.75;14.05;;;;;;;6.83;63.86;100861.09;5077339;28;20028;-81
2020/12/21 02:16:47;;;;;;;20.85;13.10;;;;;;;7.16;64.29;100927.63;5095341;28;20103;-82
2020/12/21 02:19:13;;;;;;;21.45;12.52;;;;;;;6.54;64.04;100812.66;5077391;28;20035;-83
2020/12/21 02:21:38;;;;;;;22.02;12.95;;;;;;;7.08;64.02;100899.34;5095167;28;20422;-81
2020/12/21 02:24:04;;;;;;;20.03;12.63;;;;;;;6.98;64.05;100873.00;5095119;28;20085;-81
2020/12/21 02:26:30;;;;;;;20.58;13.10;;;;;;;6.66;64.17;100809.06;5095125;28;20020;-83
2020/12/21 02:28:57;;;;;;;22.08;12.73;;;;;;;6.63;63.98;100818.00;5077205;28;20208;-83
2020/12/21 02:31:23;;;;;;;21.00;11.93;;;;;;;6.54;63.60;100789.03;5095036;28;20023;-83
2020/12/21 02:33:49;;;;;;;22.38;13.30;;;;;;;6.44;63.51;100769.75;5095151;28;20028;-84
2020/12/21 02:36:15;;;;;;;20.85;12.38;;;;;;;6.24;63.51;100740.69;5095043;28;20338;-81
2020/12/21 02:38:41;;;;;;;22.13;13.55;;;;;;;7.22;63.58;100900.88;5094852;28;20032;-82
2020/12/21 02:41:07;;;;;;;21.73;12.50;;;;;;;6.52;63.88;100807.53;5077081;28;20026;-81
2020/12/21 02:43:32;;;;;;;22.42;12.50;;;;;;;6.36;64.17;100771.19;5094826;28;20020;-82
2020/12/21 02:45:57;;;;;;;21.70;12.73;;;;;;;6.69;64.12;100829.84;5077067;28;20031;-84
2020/12/21 02:48:23;;;;;;;22.83;12.15;;;;;;;7.16;63.84;100898.72;5094794;28;20436;-83
2020/12/21 02:50:49;;;;;;;25.05;14.32;;;;;;;6.51;64.51;100787.50;5095080;28;20058;-82
2020/12/21 02:53:15;;;;;;;23.05;13.32;;;;;;;6.98;63.91;100894.00;5094753;28;20028;-84
2020/12/21 02:55:41;;;;;;;23.30;12.75;;;;;;;7.17;64.05;100911.75;5077037;28;20394;-83
2020/12/21 02:58:07;;;;;;;22.65;12.32;;;;;;;6.86;63.99;100847.72;5076646;28;20103;-83
2020/12/21 03:00:34;;;;;;;24.27;13.15;;;;;;;6.94;64.43;100884.69;5094721;28;20108;-84
2020/12/21 03:03:00;;;;;;;22.08;13.57;;;;;;;6.83;64.55;100847.13;5096485;28;20027;-80
2020/12/21 03:05:25;;;;;;;22.20;12.45;;;;;;;7.14;64.42;100887.50;5101323;28;20067;-83
2020/12/21 03:07:51;;;;;;;21.48;13.55;;;;;;;6.30;63.93;100750.69;5101479;28;20059;-84
2020/12/21 03:10:17;;;;;;;21.75;12.90;;;;;;;6.64;63.97;100826.72;5101273;28;20346;-83
2020/12/21 03:12:42;;;;;;;19.17;12.15;;;;;;;7.01;64.11;100858.78;5101530;28;20035;-83
2020/12/21 03:15:09;;;;;;;22.15;14.20;;;;;;;6.96;64.38;100863.56;5083440;28;20035;-81
2020/12/21 03:17:34;;;;;;;24.42;14.30;;;;;;;6.46;64.31;100786.19;5101458;28;20395;-81
2020/12/21 03:19:59;;;;;;;22.00;14.82;;;;;;;7.08;64.43;100880.13;5101519;28;20115;-82
2020/12/21 03:22:25;;;;;;;22.25;12.80;;;;;;;6.36;64.29;100780.84;5083249;28;20031;-82
2020/12/21 03:24:50;;;;;;;24.38;13.25;;;;;;;6.58;64.41;100793.09;5083294;28;20119;-83
2020/12/21 03:27:15;;;;;;;23.90;13.18;;;;;;;6.46;64.16;100791.44;5101174;28;20023;-81
2020/12/21 03:29:42;;;;;;;22.60;13.40;;;;;;;7.03;64.26;100863.91;5101302;28;20081;-83
2020/12/21 03:32:07;;;;;;;20.83;11.98;;;;;;;6.76;64.22;100827.56;5083312;28;20020;-83
2020/12/21 03:34:33;;;;;;;22.52;12.73;;;;;;;7.17;64.27;100892.53;5083113;28;20050;-82
2020/12/21 03:36:58;;;;;;;21.83;12.27;;;;;;;6.36;64.11;100786.09;5083194;28;20128;-81
2020/12/21 03:39:23;;;;;;;22.73;13.27;;;;;;;6.22;63.93;100739.97;5101161;28;20024;-81
2020/12/21 03:41:49;;;;;;;20.52;12.43;;;;;;;6.35;64.08;100763.44;5101059;28;20114;-82
2020/12/21 03:44:14;;;;;;;20.60;11.70;;;;;;;6.40;64.43;100798.00;5101182;28;20024;-81
2020/12/21 03:46:40;;;;;;;21.63;12.75;;;;;;;6.68;64.17;100839.47;5083073;28;20406;-83
2020/12/21 03:49:05;;;;;;;22.80;13.05;;;;;;;7.05;64.07;100914.50;5083146;28;20027;-83
2020/12/21 03:51:30;;;;;;;25.23;13.25;;;;;;;6.60;64.06;100820.03;5082977;28;20059;-84
2020/12/21 03:53:56;;;;;;;21.27;11.75;;;;;;;6.76;64.01;100851.19;5083069;28;20035;-84
2020/12/21 03:56:21;;;;;;;20.83;12.13;;;;;;;6.80;64.12;100869.19;5100740;28;20024;-84
2020/12/21 03:58:46;;;;;;;22.77;13.27;;;;;;;7.09;64.28;100897.56;5100939;28;20343;-85
2020/12/21 04:01:12;;;;;;;22.35;12.57;;;;;;;6.66;63.78;100840.56;5083105;28;20164;-84
2020/12/21 04:03:37;;;;;;;21.60;12.23;;;;;;;5.96;63.93;100730.69;5100718;28;20028;-82
2020/12/21 04:06:03;;;;;;;20.65;11.93;;;;;;;6.65;63.81;100833.63;5082918;28;20078;-82
2020/12/21 04:08:28;;;;;;;22.85;14.15;;;;;;;6.87;63.79;100872.19;5100704;28;20375;-83
2020/12/21 04:10:53;;;;;;;21.48;12.90;;;;;;;6.33;63.70;100788.94;5082827;28;20027;-81
2020/12/21 04:13:19;;;;;;;25.38;14.75;;;;;;;6.89;63.67;100876.34;5100708;28;20434;-83
2020/12/21 04:15:44;;;;;;;21.15;12.55;;;;;;;6.69;64.04;100841.19;5097014;28;20028;-84
2020/12/21 04:18:10;;;;;;;24.88;13.23;;;;;;;6.46;64.17;100794.06;5079580;28;20073;-81
2020/12/21 04:20:35;;;;;;;26.70;13.73;;;;;;;7.10;64.06;100905.31;5097453;28;20042;-81
2020/12/21 04:23:02;;;;;;;23.00;13.95;;;;;;;6.63;64.19;100831.13;5079644;28;20074;-82
2020/12/21 04:25:28;;;;;;;23.17;13.57;;;;;;;6.67;63.79;100829.09;5097599;28;20334;-83
2020/12/21 04:27:54;;;;;;;30.92;16.40;;;;;;;5.93;63.74;100708.13;5079396;28;20024;-84
2020/12/21 04:30:19;;;;;;;23.52;15.30;;;;;;;6.07;63.75;100733.31;5079443;28;20427;-83
2020/12/21 04:32:45;;;;;;;25.30;15.82;;;;;;;6.87;63.44;100857.25;5079399;28;20430;-84
2020/12/21 04:35:10;;;;;;;28.17;14.45;;;;;;;6.44;63.90;100788.94;5079408;28;20441;-83
2020/12/21 04:37:35;;;;;;;24.50;14.20;;;;;;;6.53;63.70;100819.69;5097097;28;20089;-84
2020/12/21 04:40:01;;;;;;;24.23;14.43;;;;;;;5.42;63.74;100635.22;5097356;28;20024;-82
2020/12/21 04:42:26;;;;;;;24.33;14.77;;;;;;;6.91;63.68;100874.44;5097052;28;20324;-83
2020/12/21 04:44:52;;;;;;;25.42;15.07;;;;;;;6.56;63.48;100808.13;5097114;28;20115;-83
2020/12/21 04:47:21;;;;;;;22.88;14.15;;;;;;;6.32;63.67;100768.91;5096978;28;20020;-82
2020/12/21 04:49:47;;;;;;;22.95;13.85;;;;;;;7.11;63.82;100904.34;5079116;28;20039;-84
2020/12/21 04:52:14;;;;;;;23.67;13.75;;;;;;;6.82;64.08;100866.44;5079046;28;20024;-84
2020/12/21 04:54:40;;;;;;;32.35;15.93;;;;;;;6.69;64.09;100866.59;5078931;28;20031;-81
2020/12/21 04:57:05;;;;;;;24.20;14.20;;;;;;;7.10;63.95;100907.94;5096834;28;20400;-84
2020/12/21 04:59:31;;;;;;;25.10;15.93;;;;;;;6.92;63.90;100904.97;5096530;28;20049;-84
2020/12/21 05:01:56;;;;;;;28.75;14.95;;;;;;;6.96;63.98;100900.31;5078930;28;20036;-77
2020/12/21 05:04:23;;;;;;;27.15;15.13;;;;;;;6.99;64.14;100884.31;5096663;28;20418;-77
2020/12/21 05:06:50;;;;;;;29.60;15.98;;;;;;;6.62;64.10;100833.88;5096879;28;20030;-77
2020/12/21 05:09:15;;;;;;;31.98;17.73;;;;;;;7.01;63.58;100882.41;5096687;28;20024;-76
2020/12/21 05:11:55;;;;;;;30.05;16.73;;;;;;;7.18;63.93;100925.72;5096513;28;20085;-77
2020/12/21 05:14:30;;;;;;;27.05;15.05;;;;;;;7.18;63.84;100909.94;5096401;28;20103;-76
2020/12/21 05:16:55;;;;;;;25.83;14.80;;;;;;;7.04;64.05;100887.41;5096463;28;20027;-75
2020/12/21 05:19:24;;;;;;;24.70;13.95;;;;;;;6.95;63.42;100881.09;5096316;28;20024;-77
2020/12/21 05:21:54;;;;;;;21.88;13.32;;;;;;;7.25;63.73;100914.59;5078569;28;20031;-75
2020/12/21 05:24:22;;;;;;;23.67;15.13;;;;;;;6.67;63.25;100811.56;5078276;28;20392;-77
2020/12/21 05:26:48;;;;;;;27.45;17.35;;;;;;;6.95;63.28;100882.91;5095947;28;20016;-79
2020/12/21 05:29:26;;;;;;;36.53;19.33;;;;;;;7.31;63.43;100923.78;5078293;28;20046;-79
2020/12/21 05:31:51;;;;;;;38.05;20.73;;;;;;;7.04;63.63;100876.91;5096362;28;20058;-77
2020/12/21 05:34:24;;;;;;;44.65;24.80;;;;;;;7.23;63.65;100915.66;5096205;28;20035;-78
2020/12/21 05:36:49;;;;;;;45.45;25.58;;;;;;;7.27;63.39;100927.59;5096210;28;20088;-78
2020/12/21 05:39:15;;;;;;;51.55;29.58;;;;;;;7.06;63.63;100897.81;5095984;28;20519;-77
2020/12/21 05:41:41;;;;;;;53.15;30.60;;;;;;;7.25;63.37;100934.78;5096161;28;20342;-77
2020/12/21 05:44:06;;;;;;;43.35;25.83;;;;;;;7.23;63.57;100932.25;5095897;28;20032;-77
2020/12/21 05:46:32;;;;;;;44.28;25.50;;;;;;;6.67;63.74;100853.56;5077767;28;20027;-77
2020/12/21 05:48:59;;;;;;;52.78;31.10;;;;;;;7.23;64.11;100936.69;5095925;28;20026;-77
2020/12/21 05:51:30;;;;;;;34.03;21.75;;;;;;;7.17;63.31;100945.88;5095751;28;20426;-78
2020/12/21 05:54:03;;;;;;;40.63;23.25;;;;;;;7.14;64.01;100938.25;5095709;28;20127;-77
2020/12/21 05:56:31;;;;;;;26.40;15.18;;;;;;;7.01;63.70;100930.50;5095624;28;20032;-79
2020/12/21 05:58:57;;;;;;;36.28;20.48;;;;;;;7.12;63.81;100940.16;5095440;28;20469;-77
2020/12/21 06:01:23;;;;;;;41.47;23.50;;;;;;;6.70;63.94;100873.50;5095458;28;20024;-77
2020/12/21 06:03:51;;;;;;;26.88;15.90;;;;;;;6.76;64.30;100891.41;5095522;28;20379;-78
2020/12/21 06:06:20;;;;;;;24.95;15.05;;;;;;;7.13;63.44;100936.59;5077565;28;20020;-80
2020/12/21 06:08:51;;;;;;;26.38;14.82;;;;;;;6.14;63.79;100809.69;5095397;28;20430;-80
2020/12/21 06:11:18;;;;;;;28.25;16.88;;;;;;;7.05;64.15;100938.16;5095261;28;20036;-81
2020/12/21 06:13:48;;;;;;;26.98;15.68;;;;;;;6.34;63.79;100822.09;5095180;28;20020;-83
2020/12/21 06:16:16;;;;;;;33.63;17.45;;;;;;;6.78;63.76;100912.28;5094821;28;20456;-84
2020/12/21 06:18:42;;;;;;;33.53;18.40;;;;;;;6.57;64.44;100857.03;5076804;28;20020;-82
2020/12/21 06:21:07;;;;;;;32.03;18.55;;;;;;;6.46;64.42;100855.25;5077069;28;20169;-81
2020/12/21 06:23:39;;;;;;;38.85;20.25;;;;;;;6.64;64.21;100859.03;5094785;28;20457;-81
2020/12/21 06:26:12;;;;;;;32.70;20.48;;;;;;;7.14;64.37;100942.66;5095074;28;20412;-83
2020/12/21 06:28:38;;;;;;;33.25;19.95;;;;;;;7.08;64.08;100924.78;5094918;28;20484;-79
2020/12/21 06:31:19;;;;;;;28.55;17.15;;;;;;;6.72;63.95;100863.72;5094865;28;20555;-78
2020/12/21 06:33:46;;;;;;;30.35;16.58;;;;;;;7.15;63.71;100941.72;5076945;28;20020;-82
2020/12/21 06:36:13;;;;;;;26.25;15.93;;;;;;;7.21;63.77;100939.44;5076993;28;20016;-77
2020/12/21 06:38:49;;;;;;;31.13;17.38;;;;;;;7.19;63.26;100933.47;5076038;28;20086;-77
2020/12/21 06:41:21;;;;;;;30.95;16.85;;;;;;;7.17;64.09;100942.44;5095040;28;20024;-77
2020/12/21 06:43:59;;;;;;;27.48;16.25;;;;;;;6.93;63.66;100905.81;5092683;28;20024;-78
2020/12/21 06:46:26;;;;;;;26.70;16.85;;;;;;;6.66;64.06;100846.63;5088706;28;20504;-83
2020/12/21 06:49:07;;;;;;;28.33;16.88;;;;;;;6.75;63.58;100855.59;5087711;28;20035;-85
2020/12/21 06:51:34;;;;;;;29.30;16.83;;;;;;;6.60;63.77;100830.53;5077541;28;20107;-83
2020/12/21 06:54:03;;;;;;;33.00;20.40;;;;;;;7.12;63.26;100928.81;5094786;28;20085;-77
2020/12/21 06:56:29;;;;;;;35.28;19.50;;;;;;;7.15;63.75;100937.28;5094559;28;20016;-79
2020/12/21 06:58:59;;;;;;;33.40;20.52;;;;;;;6.52;63.58;100830.31;5094499;28;20412;-80
2020/12/21 07:01:26;;;;;;;34.80;20.20;;;;;;;6.72;63.63;100868.13;5094418;28;20495;-77
2020/12/21 07:03:53;;;;;;;26.15;16.23;;;;;;;7.27;63.98;100944.19;5072345;28;20108;-78
2020/12/21 07:06:19;;;;;;;28.25;16.05;;;;;;;7.15;63.46;100923.34;5070805;28;20110;-76
2020/12/21 07:08:45;;;;;;;25.38;15.48;;;;;;;7.30;63.58;100943.94;5094322;28;20016;-78
2020/12/21 07:11:24;;;;;;;25.60;15.80;;;;;;;7.18;63.56;100925.72;5094502;28;20016;-82
2020/12/21 07:13:50;;;;;;;27.33;17.33;;;;;;;7.05;63.60;100911.88;5092824;28;20108;-81
2020/12/21 07:16:17;;;;;;;25.67;16.98;;;;;;;6.91;63.41;100886.72;5089555;28;20020;-83
2020/12/21 07:18:44;;;;;;;27.73;16.55;;;;;;;6.85;63.54;100892.47;5091923;28;20047;-83
2020/12/21 07:21:10;;;;;;;33.85;19.67;;;;;;;7.30;62.98;100949.22;5075998;28;20472;-83
2020/12/21 07:23:36;;;;;;;33.47;20.05;;;;;;;7.35;63.01;100951.47;5073569;28;20024;-77
2020/12/21 07:26:03;;;;;;;36.55;20.25;;;;;;;7.37;62.41;100954.81;5075106;28;20024;-79
2020/12/21 07:28:28;;;;;;;29.58;16.88;;;;;;;7.17;62.19;100924.88;5094174;28;20099;-77
2020/12/21 07:31:07;;;;;;;29.02;15.75;;;;;;;7.37;62.57;100962.69;5094105;28;20047;-77
2020/12/21 07:33:34;;;;;;;29.85;17.15;;;;;;;7.06;61.97;100898.63;5074784;28;20609;-77
2020/12/21 07:36:00;;;;;;;26.27;15.68;;;;;;;6.81;62.15;100865.63;5094391;28;20365;-76
2020/12/21 07:38:25;;;;;;;26.38;15.68;;;;;;;7.38;62.40;100953.00;5093906;28;20023;-75
2020/12/21 07:40:53;;;;;;;28.67;17.25;;;;;;;6.77;62.18;100852.84;5087019;28;20438;-76
2020/12/21 07:43:52;;;;;;;33.65;18.98;;;;;;;7.32;61.74;100949.91;5092653;28;20031;-76
2020/12/21 07:46:22;;;;;;;26.50;15.88;;;;;;;7.34;61.60;100945.38;5075221;28;20040;-76
2020/12/21 07:48:48;;;;;;;26.45;16.88;;;;;;;7.14;62.33;100908.53;5094438;28;20020;-77
2020/12/21 07:51:18;;;;;;;24.52;15.68;;;;;;;7.53;61.92;100951.81;5078545;28;20020;-77
2020/12/21 07:53:44;;;;;;;24.83;16.15;;;;;;;7.59;61.77;100960.03;5077827;28;21768;-77
2020/12/21 07:56:17;;;;;;;26.25;16.60;;;;;;;7.47;61.66;100937.38;5097171;28;20050;-79
2020/12/21 07:58:43;;;;;;;24.33;15.05;;;;;;;7.64;61.91;100955.22;5097102;28;20048;-79
2020/12/21 08:01:08;;;;;;;24.55;16.52;;;;;;;7.12;61.45;100873.69;5096711;28;20028;-77
2020/12/21 08:03:38;;;;;;;24.98;15.73;;;;;;;7.66;61.58;100957.75;5093515;28;20085;-78
2020/12/21 08:06:09;;;;;;;26.35;15.50;;;;;;;7.68;60.74;100962.88;5078147;28;20028;-78
2020/12/21 08:08:36;;;;;;;22.85;14.82;;;;;;;6.99;61.38;100843.16;5095753;28;20064;-85
2020/12/21 08:11:02;;;;;;;27.88;16.63;;;;;;;7.64;61.23;100949.16;5079043;28;20468;-82
2020/12/21 08:13:28;;;;;;;24.73;14.60;;;;;;;7.45;61.35;100925.31;5059344;28;20434;-83
2020/12/21 08:16:04;;;;;;;25.55;14.90;;;;;;;7.05;61.45;100864.63;5077037;28;20108;-83
2020/12/21 08:18:30;;;;;;;24.02;13.88;;;;;;;7.61;61.45;100960.75;5095961;28;20031;-78
2020/12/21 08:20:55;;;;;;;21.83;14.10;;;;;;;7.66;61.74;100952.47;5094668;28;20023;-83
2020/12/21 08:23:25;;;;;;;21.67;13.32;;;;;;;7.71;61.46;100957.38;5073345;28;20385;-77
2020/12/21 08:25:51;;;;;;;23.80;13.85;;;;;;;7.72;61.12;100959.88;5095634;28;20074;-78
2020/12/21 08:28:25;;;;;;;24.17;14.07;;;;;;;7.75;61.08;100953.53;5092270;28;20102;-79
2020/12/21 08:31:12;;;;;;;29.27;15.93;;;;;;;7.78;61.13;100959.38;5075903;28;20134;-80
2020/12/21 08:33:41;;;;;;;24.85;14.52;;;;;;;7.71;60.84;100934.53;5090668;28;20099;-78
2020/12/21 08:36:22;;;;;;;26.17;15.75;;;;;;;7.74;61.25;100938.72;5090844;28;20024;-78
2020/12/21 08:38:51;;;;;;;37.50;21.85;;;;;;;7.90;60.76;100960.16;5077131;28;20347;-80
2020/12/21 08:41:17;;;;;;;27.05;16.15;;;;;;;7.91;60.68;100946.88;5078422;28;20031;-81
2020/12/21 08:43:43;;;;;;;26.27;16.95;;;;;;;7.62;60.56;100915.09;5094920;28;20024;-79
2020/12/21 08:46:10;;;;;;;29.42;17.35;;;;;;;7.94;60.40;100951.06;5094156;28;20181;-82
2020/12/21 08:48:39;;;;;;;26.50;16.02;;;;;;;7.19;60.01;100828.41;5094600;28;20027;-83
2020/12/21 08:51:05;;;;;;;25.05;16.13;;;;;;;7.24;60.72;100833.28;5069151;28;20341;-81
2020/12/21 08:53:30;;;;;;;28.20;16.67;;;;;;;7.93;60.40;100952.00;5092094;28;20016;-82
2020/12/21 08:55:56;;;;;;;28.77;17.85;;;;;;;7.92;60.69;100951.19;5090879;28;20026;-82
2020/12/21 08:58:21;;;;;;;27.85;17.20;;;;;;;7.92;60.43;100930.16;5077575;28;20032;-79
2020/12/21 09:00:47;;;;;;;27.40;15.68;;;;;;;7.83;59.83;100919.56;5077043;28;20411;-78
2020/12/21 09:03:12;;;;;;;23.35;15.25;;;;;;;7.57;59.75;100864.69;5073055;28;20115;-80
2020/12/21 09:05:37;;;;;;;21.35;14.57;;;;;;;7.56;59.74;100857.78;5090533;28;20023;-79
2020/12/21 09:08:03;;;;;;;29.00;16.58;;;;;;;8.02;59.86;100926.75;5096418;28;20091;-82
2020/12/21 09:10:28;;;;;;;24.92;16.85;;;;;;;7.56;59.59;100860.41;5077810;28;20350;-86
2020/12/21 09:12:54;;;;;;;25.92;18.17;;;;;;;7.88;59.41;100891.91;5095667;28;20140;-84
2020/12/21 09:15:19;;;;;;;30.42;19.70;;;;;;;7.70;59.34;100872.41;5075888;28;20042;-82
2020/12/21 09:17:45;;;;;;;34.42;21.30;;;;;;;8.08;58.70;100920.97;5094941;28;20347;-85
2020/12/21 09:20:10;;;;;;;32.75;19.80;;;;;;;7.63;59.33;100874.72;5076178;28;20085;-79
2020/12/21 09:22:35;;;;;;;29.58;17.23;;;;;;;7.53;59.10;100847.53;5094604;28;20102;-84
2020/12/21 09:25:01;;;;;;;27.23;17.70;;;;;;;7.60;58.73;100858.38;5077622;28;20036;-85
2020/12/21 09:27:26;;;;;;;28.92;17.85;;;;;;;7.65;59.09;100856.19;5076586;28;20099;-82
2020/12/21 09:29:52;;;;;;;19.80;12.75;;;;;;;7.83;58.71;100890.63;5095236;28;20385;-79
2020/12/21 09:32:17;;;;;;;31.05;17.40;;;;;;;7.77;59.00;100863.06;5095611;28;20099;-83
2020/12/21 09:34:43;;;;;;;30.83;19.67;;;;;;;8.04;58.67;100909.03;5077676;28;20157;-78
2020/12/21 09:37:11;;;;;;;31.88;18.77;;;;;;;7.72;58.60;100846.81;5092448;28;20032;-83
2020/12/21 09:39:36;;;;;;;29.05;16.77;;;;;;;7.79;58.50;100847.16;5073586;28;20085;-77
2020/12/21 09:42:03;;;;;;;27.73;17.25;;;;;;;8.18;58.00;100900.84;5076205;28;20081;-78
2020/12/21 09:44:28;;;;;;;28.05;16.50;;;;;;;7.58;58.38;100803.28;5095610;28;20028;-78
2020/12/21 09:46:53;;;;;;;35.22;21.90;;;;;;;7.45;57.83;100760.59;5077734;28;20081;-82
2020/12/21 09:49:19;;;;;;;34.80;22.33;;;;;;;8.11;58.09;100868.94;5093873;28;20056;-85
2020/12/21 09:51:53;;;;;;;33.40;20.98;;;;;;;8.33;57.73;100898.72;5091833;28;20085;-78
2020/12/21 09:54:19;;;;;;;26.63;19.40;;;;;;;7.89;58.05;100843.63;5069929;28;20028;-77
2020/12/21 09:56:48;;;;;;;29.25;19.50;;;;;;;8.12;57.82;100889.03;5070861;28;20025;-78
2020/12/21 09:59:13;;;;;;;29.20;19.25;;;;;;;8.20;57.73;100902.41;5092364;28;20078;-81
2020/12/21 10:01:39;;;;;;;32.95;20.17;;;;;;;7.92;57.61;100855.69;5094396;28;20099;-78
2020/12/21 10:04:04;;;;;;;31.17;20.25;;;;;;;7.55;57.54;100790.41;5094114;28;20032;-82
2020/12/21 10:06:29;;;;;;;32.67;19.70;;;;;;;7.94;57.90;100856.38;5075878;28;20028;-83
2020/12/21 10:08:55;;;;;;;29.05;19.50;;;;;;;8.06;58.38;100873.75;5095223;28;20016;-83
2020/12/21 10:11:20;;;;;;;33.10;21.40;;;;;;;7.57;57.93;100795.53;5076292;28;20066;-81
2020/12/21 10:13:45;;;;;;;36.95;20.20;;;;;;;7.86;58.23;100848.31;5091208;28;20446;-79
2020/12/21 10:16:13;;;;;;;31.13;20.42;;;;;;;7.88;58.06;100864.78;5094252;28;20051;-80
2020/12/21 10:18:38;;;;;;;31.38;19.35;;;;;;;7.63;58.07;100806.38;5094162;28;20426;-79
2020/12/21 10:21:05;;;;;;;26.23;17.92;;;;;;;7.96;58.02;100873.69;5094375;28;20103;-78
2020/12/21 10:23:31;;;;;;;24.88;16.02;;;;;;;8.03;58.19;100860.03;5094834;28;20054;-78
2020/12/21 10:25:56;;;;;;;26.90;15.98;;;;;;;7.97;58.31;100845.59;5093614;28;20067;-78
2020/12/21 10:28:21;;;;;;;29.48;15.88;;;;;;;7.87;57.82;100814.00;5095003;28;20027;-78
2020/12/21 10:30:47;;;;;;;45.05;21.90;;;;;;;8.19;57.65;100866.53;5076803;28;20237;-78
2020/12/21 10:33:12;;;;;;;45.42;22.52;;;;;;;7.77;58.32;100780.72;5093791;28;20028;-78
2020/12/21 10:35:38;;;;;;;47.13;24.10;;;;;;;8.22;58.14;100863.63;5076218;28;20111;-77
2020/12/21 10:38:06;;;;;;;43.90;23.90;;;;;;;8.07;57.62;100846.50;5075794;28;20032;-77
2020/12/21 10:40:32;;;;;;;51.47;26.40;;;;;;;8.26;57.89;100869.47;5093915;28;20034;-76
2020/12/21 10:42:57;;;;;;;48.92;25.85;;;;;;;8.24;57.67;100866.97;5094870;28;20016;-76
2020/12/21 10:45:22;;;;;;;45.22;24.00;;;;;;;7.71;58.05;100781.22;5094757;28;20020;-77
2020/12/21 10:47:48;;;;;;;44.88;22.48;;;;;;;8.24;57.97;100863.50;5071851;28;20048;-77
2020/12/21 10:50:13;;;;;;;41.65;21.70;;;;;;;7.65;57.96;100772.06;5084607;28;20093;-77
2020/12/21 10:52:38;;;;;;;40.85;20.45;;;;;;;7.86;58.03;100799.19;5094456;28;20016;-79
2020/12/21 10:55:04;;;;;;;35.80;19.58;;;;;;;7.46;57.79;100736.00;5094740;28;20019;-77
2020/12/21 10:57:29;;;;;;;34.35;19.33;;;;;;;8.27;58.02;100855.34;5093631;28;20028;-76
2020/12/21 10:59:55;;;;;;;34.25;17.15;;;;;;;8.29;58.34;100856.88;5093438;28;20098;-77
2020/12/21 11:02:20;;;;;;;33.75;19.33;;;;;;;8.31;58.01;100848.03;5093798;28;20020;-76
2020/12/21 11:04:46;;;;;;;35.20;19.02;;;;;;;8.15;57.98;100823.00;5094065;28;20032;-78
2020/12/21 11:07:12;;;;;;;34.92;20.73;;;;;;;8.30;57.56;100849.81;5075818;28;20147;-76
2020/12/21 11:09:37;;;;;;;36.60;21.13;;;;;;;8.26;57.91;100846.63;5076230;28;20022;-77
2020/12/21 11:12:03;;;;;;;31.63;17.65;;;;;;;8.06;57.48;100820.31;5091989;28;20016;-78
2020/12/21 11:14:28;;;;;;;32.15;17.33;;;;;;;8.17;57.37;100839.47;5076251;28;20422;-77